Terminal Aerodrome Forecast
Issued by NWS Mt. Holly, NJ

Home | Current Version | Previous Version | Text Only | Print | Product List | Glossary On
Versions: 1 2 3 4 5 6 7 8 9 10 11 12 13 14 15 16 17 18
000
FTUS41 KPHI 221732
TAFABE
TAF
KABE 221732Z 2218/2318 10004KT 6SM BR VCSH OVC006
     FM230200 VRB02KT 4SM BR BKN008
     FM230700 VRB02KT 4SM BR BKN010
     FM230900 36004KT P6SM BKN020
     FM231300 03005KT P6SM BKN045=

USA.gov is the U.S. government's official web portal to all federal, state and local government web resources and services.